createdAt,value
2018-11-05T00:01:32.883Z,11.90
2018-11-05T00:04:01.079Z,9.70
2018-11-05T00:06:29.339Z,12.03
2018-11-05T00:08:57.803Z,9.90
2018-11-05T00:11:26.140Z,11.97
2018-11-05T00:13:54.360Z,10.60
2018-11-05T00:16:22.607Z,9.83
2018-11-05T00:18:51.804Z,11.27
2018-11-05T00:21:20.313Z,10.30
2018-11-05T00:23:48.567Z,9.87
2018-11-05T00:26:16.874Z,11.50
2018-11-05T00:28:45.091Z,10.53
2018-11-05T00:31:13.299Z,10.43
2018-11-05T00:33:41.535Z,11.37
2018-11-05T00:36:10.715Z,9.30
2018-11-05T00:38:39.623Z,11.77
2018-11-05T00:41:08.079Z,10.87
2018-11-05T00:43:36.376Z,11.80
2018-11-05T00:46:04.801Z,11.10
2018-11-05T00:48:33.043Z,12.17
2018-11-05T00:51:01.299Z,10.20
2018-11-05T00:53:30.175Z,9.77
2018-11-05T00:55:58.529Z,10.43
2018-11-05T00:58:26.729Z,10.83
2018-11-05T01:00:54.986Z,10.87
2018-11-05T01:03:23.348Z,12.43
2018-11-05T01:05:51.610Z,11.60
2018-11-05T01:08:22.908Z,12.80
2018-11-05T01:10:51.199Z,12.97
2018-11-05T01:13:19.516Z,12.83
2018-11-05T01:15:47.742Z,11.73
2018-11-05T01:18:15.977Z,11.77
2018-11-05T01:20:44.243Z,12.90
2018-11-05T01:23:12.451Z,11.60
2018-11-05T01:25:40.791Z,12.63
2018-11-05T01:28:09.046Z,12.07
2018-11-05T01:30:37.288Z,12.30
2018-11-05T01:33:05.923Z,11.50
2018-11-05T01:35:34.259Z,11.87
2018-11-05T01:38:02.507Z,11.60
2018-11-05T01:40:30.730Z,11.97
2018-11-05T01:42:59.015Z,11.83
2018-11-05T01:45:27.270Z,11.63
2018-11-05T01:47:55.546Z,11.27
2018-11-05T01:50:23.894Z,11.67
2018-11-05T01:52:52.138Z,12.17
2018-11-05T01:55:20.395Z,11.77
2018-11-05T01:57:48.635Z,10.73
2018-11-05T02:00:18.383Z,11.40
2018-11-05T02:02:47.351Z,12.23
2018-11-05T02:05:16.211Z,12.63
2018-11-05T02:07:45.312Z,10.10
2018-11-05T02:10:15.763Z,12.20
2018-11-05T02:12:44.002Z,13.10
2018-11-05T02:15:12.798Z,13.53
2018-11-05T02:17:42.502Z,12.47
2018-11-05T02:20:11.138Z,13.30
2018-11-05T02:22:41.167Z,14.03
2018-11-05T02:25:10.875Z,11.83
2018-11-05T02:27:39.304Z,12.90
2018-11-05T02:30:09.941Z,15.17
2018-11-05T02:32:38.203Z,12.00
2018-11-05T02:35:07.442Z,13.47
2018-11-05T02:37:35.812Z,11.03
2018-11-05T02:40:05.659Z,10.17
2018-11-05T02:42:34.793Z,11.63
2018-11-05T02:45:03.108Z,12.60
2018-11-05T02:47:31.346Z,10.80
2018-11-05T02:50:00.616Z,11.63
2018-11-05T02:52:28.951Z,12.00
2018-11-05T02:54:57.284Z,12.40
2018-11-05T02:57:25.692Z,13.43
2018-11-05T02:59:54.534Z,12.60
2018-11-05T03:02:22.923Z,12.83
2018-11-05T03:04:51.200Z,12.57
2018-11-05T03:07:19.517Z,13.17
2018-11-05T03:09:47.792Z,11.47
2018-11-05T03:12:16.119Z,14.23
2018-11-05T03:14:44.424Z,10.70
2018-11-05T03:17:12.711Z,12.93
2018-11-05T03:19:40.940Z,12.53
2018-11-05T03:22:09.248Z,11.57
2018-11-05T03:24:37.492Z,11.03
2018-11-05T03:27:06.005Z,11.27
2018-11-05T03:29:34.284Z,13.40
2018-11-05T03:32:02.540Z,13.83
2018-11-05T03:34:30.783Z,13.17
2018-11-05T03:36:59.084Z,14.37
2018-11-05T03:39:27.879Z,14.17
2018-11-05T03:41:57.574Z,13.93
2018-11-05T03:44:25.787Z,14.17
2018-11-05T03:46:54.025Z,13.33
2018-11-05T03:49:22.596Z,12.70
2018-11-05T03:51:50.907Z,14.17
2018-11-05T03:54:19.176Z,12.87
2018-11-05T03:56:47.589Z,13.73
2018-11-05T03:59:16.882Z,14.10
2018-11-05T04:01:45.109Z,13.17
2018-11-05T04:04:13.352Z,15.13
2018-11-05T04:06:41.598Z,13.97
2018-11-05T04:09:11.700Z,12.03
2018-11-05T04:11:40.011Z,11.93
2018-11-05T04:14:08.543Z,13.03
2018-11-05T04:16:36.793Z,13.03
2018-11-05T04:19:05.205Z,14.23
2018-11-05T04:21:38.992Z,13.13
2018-11-05T04:24:07.788Z,15.07
2018-11-05T04:26:36.555Z,13.93
2018-11-05T04:29:04.904Z,14.87
2018-11-05T04:31:33.395Z,11.57
2018-11-05T04:34:01.728Z,12.67
2018-11-05T04:36:30.011Z,15.80
2018-11-05T04:38:58.336Z,13.00
2018-11-05T04:41:26.597Z,16.07
2018-11-05T04:43:54.883Z,15.73
2018-11-05T04:46:24.091Z,16.33
2018-11-05T04:48:52.351Z,15.70
2018-11-05T04:51:20.612Z,14.97
2018-11-05T04:53:48.845Z,17.03
2018-11-05T04:56:17.139Z,14.87
2018-11-05T04:58:45.368Z,14.07
2018-11-05T05:01:14.122Z,14.97
2018-11-05T05:03:42.344Z,16.10
2018-11-05T05:06:10.860Z,16.93
2018-11-05T05:08:39.163Z,17.27
2018-11-05T05:11:07.411Z,15.80
2018-11-05T05:13:35.639Z,17.50
2018-11-05T05:16:03.918Z,15.07
2018-11-05T05:18:32.215Z,15.83
2018-11-05T05:21:00.446Z,17.27
2018-11-05T05:23:28.747Z,15.53
2018-11-05T05:25:56.987Z,17.53
2018-11-05T05:28:25.247Z,18.43
2018-11-05T05:30:53.495Z,15.30
2018-11-05T05:33:21.764Z,16.07
2018-11-05T05:35:50.092Z,16.60
2018-11-05T05:38:18.352Z,20.77
2018-11-05T05:40:46.691Z,16.87
2018-11-05T05:43:15.747Z,17.23
2018-11-05T05:45:44.683Z,19.47
2018-11-05T05:48:12.978Z,18.03
2018-11-05T05:50:41.241Z,19.13
2018-11-05T05:53:09.530Z,23.70
2018-11-05T05:55:37.819Z,19.60
2018-11-05T05:58:06.088Z,20.83
2018-11-05T06:00:34.352Z,25.63
2018-11-05T06:03:02.675Z,17.63
2018-11-05T06:05:31.264Z,16.43
2018-11-05T06:07:59.563Z,18.07
2018-11-05T06:10:28.473Z,23.70
2018-11-05T06:12:56.844Z,20.43
2018-11-05T06:15:26.110Z,17.63
2018-11-05T06:17:54.363Z,20.37
2018-11-05T06:20:22.584Z,18.97
2018-11-05T06:22:51.035Z,21.60
2018-11-05T06:25:19.426Z,25.30
2018-11-05T06:27:47.807Z,25.23
2018-11-05T06:30:17.948Z,18.73
2018-11-05T06:32:47.016Z,18.57
2018-11-05T06:35:15.327Z,19.93
2018-11-05T06:37:43.622Z,21.70
2018-11-05T06:40:14.516Z,20.90
2018-11-05T06:42:43.707Z,19.50
2018-11-05T06:45:15.294Z,25.37
2018-11-05T06:47:44.467Z,24.43
2018-11-05T06:50:14.869Z,24.77
2018-11-05T06:52:44.230Z,19.67
2018-11-05T06:55:13.800Z,24.97
2018-11-05T06:57:42.335Z,32.53
2018-11-05T07:00:14.936Z,21.50
2018-11-05T07:02:43.543Z,27.53
2018-11-05T07:06:41.139Z,25.47
2018-11-05T07:09:10.499Z,19.80
2018-11-05T07:11:39.168Z,21.00
2018-11-05T07:14:08.003Z,24.83
2018-11-05T07:16:36.315Z,22.83
2018-11-05T07:19:05.297Z,26.03
2018-11-05T07:21:33.447Z,19.70
2018-11-05T07:24:01.720Z,24.13
2018-11-05T07:26:30.205Z,25.13
2018-11-05T07:28:58.426Z,20.60
2018-11-05T07:31:26.708Z,22.13
2018-11-05T07:33:55.249Z,24.30
2018-11-05T07:36:23.195Z,23.67
2018-11-05T07:38:51.463Z,31.63
2018-11-05T07:41:19.804Z,29.13
2018-11-05T07:43:47.978Z,28.67
2018-11-05T07:46:16.276Z,24.70
2018-11-05T07:48:44.800Z,23.00
2018-11-05T07:51:13.197Z,22.83
2018-11-05T07:53:41.416Z,21.27
2018-11-05T07:56:10.519Z,21.13
2018-11-05T07:58:38.711Z,27.67
2018-11-05T08:01:08.018Z,20.80
2018-11-05T08:03:36.275Z,25.33
2018-11-05T08:06:04.588Z,26.53
2018-11-05T08:08:32.912Z,27.33
2018-11-05T08:11:01.095Z,25.43
2018-11-05T08:13:29.367Z,31.00
2018-11-05T08:15:57.683Z,27.07
2018-11-05T08:18:25.953Z,21.77
2018-11-05T08:20:54.751Z,23.97
2018-11-05T08:23:23.207Z,19.93
2018-11-05T08:25:51.552Z,24.07
2018-11-05T08:28:20.432Z,30.33
2018-11-05T08:30:48.699Z,25.33
2018-11-05T08:33:16.919Z,24.33
2018-11-05T08:35:45.116Z,24.30
2018-11-05T08:38:13.390Z,26.10
2018-11-05T08:40:41.688Z,28.63
2018-11-05T08:43:10.028Z,27.30
2018-11-05T08:45:38.336Z,26.13
2018-11-05T08:48:06.579Z,26.37
2018-11-05T08:50:34.914Z,33.23
2018-11-05T08:53:03.128Z,26.03
2018-11-05T08:55:31.424Z,29.70
2018-11-05T08:57:59.824Z,29.57
2018-11-05T09:00:34.929Z,27.60
2018-11-05T09:03:03.206Z,26.53
2018-11-05T09:05:31.455Z,30.20
2018-11-05T09:07:59.796Z,28.13
2018-11-05T09:10:28.314Z,24.20
2018-11-05T09:12:56.320Z,29.33
2018-11-05T09:15:24.639Z,27.30
2018-11-05T09:17:53.892Z,31.83
2018-11-05T09:20:22.147Z,29.77
2018-11-05T09:22:51.021Z,25.37
2018-11-05T09:25:19.358Z,21.60
2018-11-05T09:27:47.665Z,24.77
2018-11-05T09:30:17.308Z,30.33
2018-11-05T09:32:46.081Z,23.67
2018-11-05T09:35:15.489Z,29.50
2018-11-05T09:37:43.763Z,24.93
2018-11-05T09:40:15.175Z,32.00
2018-11-05T09:44:12.703Z,28.63
2018-11-05T09:46:40.910Z,23.47
2018-11-05T09:49:09.192Z,27.80
2018-11-05T09:51:37.642Z,19.47
2018-11-05T09:54:06.219Z,21.97
2018-11-05T09:56:34.575Z,24.97
2018-11-05T09:59:02.834Z,23.80
2018-11-05T10:01:31.067Z,29.10
2018-11-05T10:03:59.700Z,24.90
2018-11-05T10:06:27.905Z,26.87
2018-11-05T10:08:56.127Z,27.80
2018-11-05T10:11:24.422Z,25.60
2018-11-05T10:13:53.034Z,26.77
2018-11-05T10:16:21.311Z,23.37
2018-11-05T10:18:49.562Z,22.63
2018-11-05T10:21:17.782Z,27.03
2018-11-05T10:23:46.063Z,21.07
2018-11-05T10:26:14.939Z,18.27
2018-11-05T10:28:43.217Z,24.27
2018-11-05T10:31:15.700Z,32.57
2018-11-05T10:33:50.234Z,23.97
2018-11-05T10:36:19.287Z,23.70
2018-11-05T10:38:47.651Z,26.47
2018-11-05T10:41:16.224Z,34.77
2018-11-05T10:43:44.484Z,28.20
2018-11-05T10:46:13.063Z,25.90
2018-11-05T10:48:41.418Z,24.93
2018-11-05T10:51:10.116Z,23.70
2018-11-05T10:53:38.431Z,24.50
2018-11-05T10:56:06.905Z,24.37
2018-11-05T10:58:35.120Z,29.83
2018-11-05T11:01:09.540Z,31.07
2018-11-05T11:03:38.816Z,27.90
2018-11-05T11:06:08.927Z,27.03
2018-11-05T11:08:37.345Z,23.23
2018-11-05T11:11:06.291Z,22.63
2018-11-05T11:13:34.566Z,21.13
2018-11-05T11:16:02.828Z,20.47
2018-11-05T11:18:31.066Z,17.50
2018-11-05T11:20:59.567Z,23.87
2018-11-05T11:23:27.909Z,30.37
2018-11-05T11:25:56.224Z,35.87
2018-11-05T11:28:24.540Z,30.57
2018-11-05T11:30:52.700Z,27.73
2018-11-05T11:33:20.972Z,27.70
2018-11-05T11:35:49.239Z,28.23
2018-11-05T11:38:17.513Z,34.50
2018-11-05T11:40:45.791Z,30.30
2018-11-05T11:43:14.767Z,25.23
2018-11-05T11:45:43.061Z,25.07
2018-11-05T11:48:11.287Z,27.57
2018-11-05T11:50:39.660Z,28.67
2018-11-05T11:53:08.165Z,27.27
2018-11-05T11:55:36.523Z,28.03
2018-11-05T11:58:05.244Z,26.70
2018-11-05T12:00:33.478Z,28.07
2018-11-05T12:03:01.943Z,25.03
2018-11-05T12:05:30.664Z,26.13
2018-11-05T12:07:58.949Z,22.17
2018-11-05T12:10:27.247Z,29.50
2018-11-05T12:12:55.472Z,28.27
2018-11-05T12:15:24.038Z,30.27
2018-11-05T12:17:53.219Z,19.07
2018-11-05T12:20:22.772Z,25.63
2018-11-05T12:22:51.478Z,26.87
2018-11-05T12:25:19.881Z,26.13
2018-11-05T12:27:48.163Z,24.20
2018-11-05T12:30:18.296Z,27.77
2018-11-05T12:32:47.201Z,28.80
2018-11-05T12:35:16.281Z,30.73
2018-11-05T12:37:45.663Z,21.63
2018-11-05T12:40:15.268Z,24.43
2018-11-05T12:42:44.749Z,20.43
2018-11-05T12:45:13.047Z,24.67
2018-11-05T12:47:42.004Z,27.23
2018-11-05T12:50:12.935Z,28.03
2018-11-05T12:52:41.529Z,22.93
2018-11-05T12:55:10.295Z,25.67
2018-11-05T12:57:38.611Z,26.00
2018-11-05T13:00:11.707Z,29.93
2018-11-05T13:02:39.950Z,23.43
2018-11-05T13:05:08.787Z,28.27
2018-11-05T13:07:37.101Z,25.07
2018-11-05T13:10:08.275Z,22.43
2018-11-05T13:12:36.475Z,29.77
2018-11-05T13:15:05.479Z,30.33
2018-11-05T13:17:34.040Z,33.43
2018-11-05T13:20:02.674Z,22.20
2018-11-05T13:22:31.008Z,23.13
2018-11-05T13:24:59.415Z,27.63
2018-11-05T13:27:27.693Z,21.83
2018-11-05T13:29:56.301Z,22.10
2018-11-05T13:32:24.519Z,33.17
2018-11-05T13:34:52.699Z,27.20
2018-11-05T13:37:21.129Z,22.73
2018-11-05T13:39:49.271Z,22.93
2018-11-05T13:42:18.643Z,31.70
2018-11-05T13:44:46.893Z,28.03
2018-11-05T13:47:15.634Z,28.63
2018-11-05T13:49:43.848Z,27.60
2018-11-05T13:52:11.979Z,25.87
2018-11-05T13:54:40.476Z,23.70
2018-11-05T13:57:09.339Z,26.07
2018-11-05T13:59:37.584Z,34.13
2018-11-05T14:02:06.049Z,24.63
2018-11-05T14:04:35.298Z,25.30
2018-11-05T14:07:03.574Z,29.93
2018-11-05T14:09:31.892Z,30.00
2018-11-05T14:12:00.172Z,25.73
2018-11-05T14:14:28.409Z,30.83
2018-11-05T14:16:56.707Z,22.70
2018-11-05T14:19:24.983Z,32.93
2018-11-05T14:21:53.215Z,27.63
2018-11-05T14:24:22.016Z,30.17
2018-11-05T14:26:50.479Z,31.77
2018-11-05T14:29:19.277Z,27.20
2018-11-05T14:31:47.114Z,28.10
2018-11-05T14:34:15.387Z,29.87
2018-11-05T14:36:44.821Z,26.47
2018-11-05T14:39:14.180Z,24.23
2018-11-05T14:41:42.831Z,21.73
2018-11-05T14:44:12.420Z,30.10
2018-11-05T14:46:40.659Z,21.47
2018-11-05T14:49:09.275Z,25.37
2018-11-05T14:51:37.563Z,30.57
2018-11-05T14:54:05.890Z,31.63
2018-11-05T14:56:34.832Z,28.30
2018-11-05T14:59:03.095Z,21.20
2018-11-05T15:01:31.878Z,22.40
2018-11-05T15:04:00.187Z,25.93
2018-11-05T15:06:28.439Z,23.07
2018-11-05T15:08:56.696Z,25.13
2018-11-05T15:11:25.566Z,23.00
2018-11-05T15:13:53.823Z,25.67
2018-11-05T15:16:22.318Z,28.77
2018-11-05T15:18:51.350Z,30.40
2018-11-05T15:21:19.426Z,30.50
2018-11-05T15:23:47.634Z,22.27
2018-11-05T15:26:15.868Z,25.90
2018-11-05T15:28:45.123Z,23.97
2018-11-05T15:31:13.483Z,18.20
2018-11-05T15:33:41.791Z,22.00
2018-11-05T15:36:09.983Z,23.40
2018-11-05T15:38:40.521Z,20.40
2018-11-05T15:41:08.802Z,24.63
2018-11-05T15:43:37.714Z,22.47
2018-11-05T15:46:06.518Z,22.20
2018-11-05T15:48:35.628Z,18.60
2018-11-05T15:51:04.716Z,22.70
2018-11-05T15:53:33.229Z,17.20
2018-11-05T15:56:01.261Z,24.17
2018-11-05T15:58:29.560Z,26.27
2018-11-05T16:00:57.835Z,25.70
2018-11-05T16:03:27.088Z,25.60
2018-11-05T16:05:55.332Z,20.40
2018-11-05T16:08:23.641Z,22.60
2018-11-05T16:10:51.958Z,18.50
2018-11-05T16:13:20.323Z,28.77
2018-11-05T16:15:48.720Z,21.43
2018-11-05T16:18:17.043Z,17.13
2018-11-05T16:20:45.298Z,22.43
2018-11-05T16:23:14.063Z,18.43
2018-11-05T16:25:42.348Z,18.13
2018-11-05T16:28:10.575Z,21.70
2018-11-05T16:30:38.867Z,22.07
2018-11-05T16:33:07.036Z,28.27
2018-11-05T16:35:35.375Z,28.70
2018-11-05T16:38:03.558Z,19.67
2018-11-05T16:40:31.822Z,25.80
2018-11-05T16:43:00.048Z,25.30
2018-11-05T16:45:28.599Z,25.03
2018-11-05T16:47:56.811Z,29.83
2018-11-05T16:50:26.787Z,26.37
2018-11-05T16:52:55.191Z,21.07
2018-11-05T16:55:23.619Z,26.23
2018-11-05T16:57:53.245Z,34.70
2018-11-05T17:00:21.948Z,30.60
2018-11-05T17:02:50.655Z,19.87
2018-11-05T17:05:18.608Z,22.37
2018-11-05T17:07:46.860Z,25.40
2018-11-05T17:10:15.670Z,26.93
2018-11-05T17:12:44.563Z,24.57
2018-11-05T17:15:13.959Z,20.17
2018-11-05T17:17:42.731Z,24.20
2018-11-05T17:20:13.084Z,19.93
2018-11-05T17:22:41.887Z,21.53
2018-11-05T17:25:11.047Z,20.50
2018-11-05T17:27:39.368Z,28.73
2018-11-05T17:30:12.319Z,19.07
2018-11-05T17:32:40.639Z,21.20
2018-11-05T17:35:12.021Z,25.83
2018-11-05T17:37:40.324Z,24.37
2018-11-05T17:40:10.683Z,30.53
2018-11-05T17:42:39.387Z,28.53
2018-11-05T17:45:09.168Z,26.47
2018-11-05T17:47:37.452Z,32.77
2018-11-05T17:50:07.836Z,31.13
2018-11-05T17:52:36.071Z,21.20
2018-11-05T17:55:04.881Z,28.43
2018-11-05T17:57:33.161Z,24.10
2018-11-05T18:00:01.414Z,30.47
2018-11-05T18:02:29.712Z,30.23
2018-11-05T18:04:57.963Z,27.97
2018-11-05T18:07:26.236Z,24.80
2018-11-05T18:09:54.865Z,31.23
2018-11-05T18:12:23.779Z,30.73
2018-11-05T18:14:52.113Z,34.43
2018-11-05T18:17:20.446Z,23.57
2018-11-05T18:19:48.709Z,27.03
2018-11-05T18:22:17.539Z,23.17
2018-11-05T18:24:45.807Z,22.70
2018-11-05T18:27:14.197Z,30.30
2018-11-05T18:29:42.991Z,32.23
2018-11-05T18:32:21.615Z,25.03
2018-11-05T18:34:51.559Z,21.30
2018-11-05T18:37:19.831Z,27.80
2018-11-05T18:39:48.307Z,25.63
2018-11-05T18:42:16.639Z,26.43
2018-11-05T18:44:45.004Z,23.87
2018-11-05T18:47:13.376Z,22.43
2018-11-05T18:49:41.968Z,22.67
2018-11-05T18:52:10.679Z,25.00
2018-11-05T18:54:39.315Z,28.53
2018-11-05T18:57:08.031Z,19.77
2018-11-05T18:59:36.215Z,20.87
2018-11-05T19:02:05.192Z,19.20
2018-11-05T19:04:33.543Z,28.77
2018-11-05T19:07:01.765Z,26.37
2018-11-05T19:09:30.216Z,27.17
2018-11-05T19:11:58.536Z,28.47
2018-11-05T19:14:26.937Z,24.53
2018-11-05T19:16:55.195Z,24.57
2018-11-05T19:19:23.520Z,20.73
2018-11-05T19:21:52.028Z,25.87
2018-11-05T19:24:20.595Z,27.07
2018-11-05T19:26:48.803Z,23.93
2018-11-05T19:29:17.108Z,26.77
2018-11-05T19:31:46.550Z,24.15
2018-11-05T19:34:14.967Z,21.70
2018-11-05T19:36:43.200Z,23.37
2018-11-05T19:39:13.482Z,20.47
2018-11-05T19:41:42.087Z,22.43
2018-11-05T19:44:10.298Z,24.57
2018-11-05T19:46:39.076Z,24.23
2018-11-05T19:49:07.352Z,24.10
2018-11-05T19:51:35.655Z,27.10
2018-11-05T19:54:03.924Z,25.27
2018-11-05T19:56:33.296Z,31.83
2018-11-05T19:59:01.511Z,21.00
2018-11-05T20:01:29.788Z,25.27
2018-11-05T20:03:58.081Z,26.13
2018-11-05T20:06:27.272Z,25.57
2018-11-05T20:08:55.563Z,27.50
2018-11-05T20:11:23.817Z,29.93
2018-11-05T20:13:52.520Z,28.00
2018-11-05T20:16:21.211Z,23.67
2018-11-05T20:18:49.623Z,30.30
2018-11-05T20:21:18.171Z,34.13
2018-11-05T20:23:46.416Z,30.80
2018-11-05T20:26:14.723Z,37.37
2018-11-05T20:28:43.025Z,27.90
2018-11-05T20:31:11.420Z,28.57
2018-11-05T20:33:40.343Z,26.43
2018-11-05T20:36:08.358Z,29.03
2018-11-05T20:38:36.687Z,26.20
2018-11-05T20:41:04.939Z,28.03
2018-11-05T20:43:33.226Z,30.67
2018-11-05T20:46:01.608Z,23.90
2018-11-05T20:48:30.056Z,25.17
2018-11-05T20:50:58.480Z,27.60
2018-11-05T20:53:26.995Z,27.50
2018-11-05T20:55:55.221Z,29.13
2018-11-05T20:58:23.625Z,37.90
2018-11-05T21:00:52.059Z,30.60
2018-11-05T21:03:21.057Z,30.03
2018-11-05T21:05:49.289Z,27.80
2018-11-05T21:08:17.578Z,38.17
2018-11-05T21:10:45.804Z,36.70
2018-11-05T21:13:14.116Z,29.60
2018-11-05T21:15:42.416Z,30.20
2018-11-05T21:18:10.660Z,38.03
2018-11-05T21:20:38.855Z,35.67
2018-11-05T21:23:07.180Z,33.10
2018-11-05T21:25:35.335Z,43.87
2018-11-05T21:28:03.683Z,39.77
2018-11-05T21:30:32.483Z,35.97
2018-11-05T21:33:01.808Z,33.83
2018-11-05T21:35:30.067Z,32.00
2018-11-05T21:37:58.359Z,35.37
2018-11-05T21:40:26.670Z,33.10
2018-11-05T21:42:54.895Z,38.13
2018-11-05T21:45:23.158Z,38.43
2018-11-05T21:47:51.427Z,37.67
2018-11-05T21:50:20.075Z,37.57
2018-11-05T21:52:50.233Z,38.20
2018-11-05T21:55:18.526Z,33.50
2018-11-05T21:57:48.081Z,55.20
2018-11-05T22:00:19.674Z,38.70
2018-11-05T22:02:53.254Z,41.97
2018-11-05T22:05:22.813Z,41.37
2018-11-05T22:07:51.794Z,41.33
2018-11-05T22:10:20.796Z,35.00
2018-11-05T22:12:49.172Z,36.77
2018-11-05T22:15:17.743Z,36.20
2018-11-05T22:17:46.067Z,38.70
2018-11-05T22:20:14.420Z,39.47
2018-11-05T22:22:42.748Z,40.43
2018-11-05T22:25:11.419Z,44.10
2018-11-05T22:27:40.648Z,36.87
2018-11-05T22:30:10.111Z,40.93
2018-11-05T22:32:38.391Z,47.40
2018-11-05T22:35:06.872Z,50.50
2018-11-05T22:37:35.316Z,50.27
2018-11-05T22:40:04.464Z,49.63
2018-11-05T22:42:33.368Z,49.83
2018-11-05T22:45:01.679Z,38.70
2018-11-05T22:47:30.028Z,37.40
2018-11-05T22:49:58.275Z,45.30
2018-11-05T22:52:26.516Z,39.70
2018-11-05T22:54:54.739Z,42.00
2018-11-05T22:57:23.034Z,44.20
2018-11-05T22:59:51.408Z,42.20
2018-11-05T23:02:19.699Z,38.43
2018-11-05T23:04:47.956Z,35.80
2018-11-05T23:07:16.231Z,45.57
2018-11-05T23:09:44.452Z,41.33
2018-11-05T23:12:12.723Z,38.67
2018-11-05T23:14:41.047Z,36.70
2018-11-05T23:17:09.310Z,47.77
2018-11-05T23:19:37.587Z,40.20
2018-11-05T23:22:06.503Z,39.63
2018-11-05T23:24:34.847Z,49.57
2018-11-05T23:27:03.123Z,44.27
2018-11-05T23:29:31.755Z,47.73
2018-11-05T23:32:00.075Z,43.37
2018-11-05T23:34:28.327Z,41.80
2018-11-05T23:36:56.603Z,38.90
2018-11-05T23:39:24.880Z,45.50
2018-11-05T23:41:53.184Z,49.97
2018-11-05T23:44:22.056Z,37.77
2018-11-05T23:46:50.351Z,37.57
2018-11-05T23:49:19.051Z,39.70
2018-11-05T23:51:47.415Z,40.43
2018-11-05T23:54:15.552Z,39.60
2018-11-05T23:56:43.904Z,40.90
2018-11-05T23:59:12.244Z,33.80
